Aérodrome :
LOGIN :

S'inscrire | Disclaimer

   EN    FR    IT 

 










Légende :    VFR   VFR Marginal   IFR   IFR Intensif   IFR Très Intensif
Visi : 
Plafond : 
>= 8 km
>= 3000ft
5 à 8 km
1000 à 3000 ft
1500m à 5 km
500 à 1000 ft
800 à 1500m
200 à 500 ft
< 800m
< 200 ft
Symboles :   Orages  Brouillard  Fortes neiges  Fortes précipitations  Vent > 20 kt
SIGMETs :   Divers  Orages  Givrage  Turbulence  Onde Orograph.  Cendres Volcan.







- Altitude de l'aérodrome : 56 ft


LPOV - Ovar Air Base

DERNIER METAR :
  • 152200Z 15003KT 9999 FEW003 SCT006 17/16 Q1016

METARs EXPIRÉS :
  • 152100Z VRB02KT 9999 FEW006 17/16 Q1016
  • 152000Z 27006KT 9999 SCT006 18/17 Q1015

TAF TAF LPOV
Valide du 15 à 18h jusqu'au 16 à 18h UTC


151703Z 1518/1618 34008KT CAVOK
BECMG 1521/1523 VRB02KT
PROB40 1601/1609 0800 FG BKN002
PROB40
TEMPO 1609/1612 BKN006
BECMG 1611/1613 34015KT
TEMPO 1613/1618 35020G32KT
Pas de NOTAMs connus pour ce terrain.



MET'MAP, la Météo Aéronautique d'un coup d'oeil ! - Copyright ORBIFLY Décembre 2007 - Disclaimer

ORBIFLY MET'MAP TEAM :

Programmation & Développement : Alexandra Zaïnal
Conception & Développement : Baudouin d'Aumeries
Co-Programmation & Développement : Marc-Olivier Méhu
Soutien technique & logistique : Manuel Goepfert

Contact : metmap@orbifly.com




SOURCES & CREDITS :

   NOAA